sensor_id;sensor_type;location;lat;lon;timestamp;temperature;humidity
23873;DHT22;42884;50.718;4.630;2022-08-21T00:00:19;15.20;99.90
23873;DHT22;42884;50.718;4.630;2022-08-21T00:02:50;15.20;99.90
23873;DHT22;42884;50.718;4.630;2022-08-21T00:05:16;15.20;99.90
23873;DHT22;42884;50.718;4.630;2022-08-21T00:07:42;15.10;99.90
23873;DHT22;42884;50.718;4.630;2022-08-21T00:10:07;15.10;99.90
23873;DHT22;42884;50.718;4.630;2022-08-21T00:12:33;15.10;99.90
23873;DHT22;42884;50.718;4.630;2022-08-21T00:14:59;15.00;99.90
23873;DHT22;42884;50.718;4.630;2022-08-21T00:17:24;15.00;99.90
23873;DHT22;42884;50.718;4.630;2022-08-21T00:19:50;15.00;99.90
23873;DHT22;42884;50.718;4.630;2022-08-21T00:22:15;15.00;99.90
23873;DHT22;42884;50.718;4.630;2022-08-21T00:24:41;15.00;99.90
23873;DHT22;42884;50.718;4.630;2022-08-21T00:27:07;14.90;99.90
23873;DHT22;42884;50.718;4.630;2022-08-21T00:29:32;14.90;99.90
23873;DHT22;42884;50.718;4.630;2022-08-21T00:31:58;14.90;99.90
23873;DHT22;42884;50.718;4.630;2022-08-21T00:34:24;14.90;99.90
23873;DHT22;42884;50.718;4.630;2022-08-21T00:36:49;14.80;99.90
23873;DHT22;42884;50.718;4.630;2022-08-21T00:39:15;14.80;99.90
23873;DHT22;42884;50.718;4.630;2022-08-21T00:41:41;14.80;99.90
23873;DHT22;42884;50.718;4.630;2022-08-21T00:44:08;14.80;99.90
23873;DHT22;42884;50.718;4.630;2022-08-21T00:46:34;14.70;99.90
23873;DHT22;42884;50.718;4.630;2022-08-21T00:49:00;14.70;99.90
23873;DHT22;42884;50.718;4.630;2022-08-21T00:51:28;14.70;99.90
23873;DHT22;42884;50.718;4.630;2022-08-21T00:53:59;14.70;99.90
23873;DHT22;42884;50.718;4.630;2022-08-21T00:56:26;14.70;99.90
23873;DHT22;42884;50.718;4.630;2022-08-21T00:58:52;14.60;99.90
23873;DHT22;42884;50.718;4.630;2022-08-21T01:01:19;14.60;99.90
23873;DHT22;42884;50.718;4.630;2022-08-21T01:03:45;14.60;99.90
23873;DHT22;42884;50.718;4.630;2022-08-21T01:06:11;14.50;99.90
23873;DHT22;42884;50.718;4.630;2022-08-21T01:08:36;14.50;99.90
23873;DHT22;42884;50.718;4.630;2022-08-21T01:11:02;14.50;99.90
23873;DHT22;42884;50.718;4.630;2022-08-21T01:13:28;14.50;99.90
23873;DHT22;42884;50.718;4.630;2022-08-21T01:15:56;14.40;99.90
23873;DHT22;42884;50.718;4.630;2022-08-21T01:18:25;14.40;99.90
23873;DHT22;42884;50.718;4.630;2022-08-21T01:21:36;14.40;99.90
23873;DHT22;42884;50.718;4.630;2022-08-21T01:23:37;14.40;99.90
23873;DHT22;42884;50.718;4.630;2022-08-21T01:26:03;14.40;99.90
23873;DHT22;42884;50.718;4.630;2022-08-21T01:28:30;14.30;99.90
23873;DHT22;42884;50.718;4.630;2022-08-21T01:30:56;14.30;99.90
23873;DHT22;42884;50.718;4.630;2022-08-21T01:33:22;14.20;99.90
23873;DHT22;42884;50.718;4.630;2022-08-21T01:35:49;14.20;99.90
23873;DHT22;42884;50.718;4.630;2022-08-21T01:38:15;14.20;99.90
23873;DHT22;42884;50.718;4.630;2022-08-21T01:40:40;14.20;99.90
23873;DHT22;42884;50.718;4.630;2022-08-21T01:43:06;14.20;99.90
23873;DHT22;42884;50.718;4.630;2022-08-21T01:45:32;14.20;99.90
23873;DHT22;42884;50.718;4.630;2022-08-21T01:47:57;14.20;99.90
23873;DHT22;42884;50.718;4.630;2022-08-21T01:50:23;14.10;99.90
23873;DHT22;42884;50.718;4.630;2022-08-21T01:52:49;14.10;99.90
23873;DHT22;42884;50.718;4.630;2022-08-21T01:55:15;14.10;99.90
23873;DHT22;42884;50.718;4.630;2022-08-21T01:57:41;14.10;99.90
23873;DHT22;42884;50.718;4.630;2022-08-21T02:00:08;14.10;99.90
23873;DHT22;42884;50.718;4.630;2022-08-21T02:02:35;14.00;99.90
23873;DHT22;42884;50.718;4.630;2022-08-21T02:05:01;14.00;99.90
23873;DHT22;42884;50.718;4.630;2022-08-21T02:07:35;14.00;99.90
23873;DHT22;42884;50.718;4.630;2022-08-21T02:10:00;14.00;99.90
23873;DHT22;42884;50.718;4.630;2022-08-21T02:12:26;14.00;99.90
23873;DHT22;42884;50.718;4.630;2022-08-21T02:14:51;14.00;99.90
23873;DHT22;42884;50.718;4.630;2022-08-21T02:17:17;13.90;99.90
23873;DHT22;42884;50.718;4.630;2022-08-21T02:19:42;13.90;99.90
23873;DHT22;42884;50.718;4.630;2022-08-21T02:22:09;13.80;99.90
23873;DHT22;42884;50.718;4.630;2022-08-21T02:24:35;13.90;99.90
23873;DHT22;42884;50.718;4.630;2022-08-21T02:27:00;13.80;99.90
23873;DHT22;42884;50.718;4.630;2022-08-21T02:29:26;13.80;99.90
23873;DHT22;42884;50.718;4.630;2022-08-21T02:31:51;13.80;99.90
23873;DHT22;42884;50.718;4.630;2022-08-21T02:34:18;13.80;99.90
23873;DHT22;42884;50.718;4.630;2022-08-21T02:36:44;13.70;99.90
23873;DHT22;42884;50.718;4.630;2022-08-21T02:39:10;13.70;99.90
23873;DHT22;42884;50.718;4.630;2022-08-21T02:41:35;13.70;99.90
23873;DHT22;42884;50.718;4.630;2022-08-21T02:44:01;13.70;99.90
23873;DHT22;42884;50.718;4.630;2022-08-21T02:46:26;13.70;99.90
23873;DHT22;42884;50.718;4.630;2022-08-21T02:48:52;13.60;99.90
23873;DHT22;42884;50.718;4.630;2022-08-21T02:51:18;13.60;99.90
23873;DHT22;42884;50.718;4.630;2022-08-21T02:53:45;13.60;99.90
23873;DHT22;42884;50.718;4.630;2022-08-21T02:56:12;13.60;99.90
23873;DHT22;42884;50.718;4.630;2022-08-21T02:58:40;13.50;99.90
23873;DHT22;42884;50.718;4.630;2022-08-21T03:01:07;13.50;99.90
23873;DHT22;42884;50.718;4.630;2022-08-21T03:03:36;13.50;99.90
23873;DHT22;42884;50.718;4.630;2022-08-21T03:06:02;13.40;99.90
23873;DHT22;42884;50.718;4.630;2022-08-21T03:08:28;13.50;99.90
23873;DHT22;42884;50.718;4.630;2022-08-21T03:10:53;13.40;99.90
23873;DHT22;42884;50.718;4.630;2022-08-21T03:13:19;13.40;99.90
23873;DHT22;42884;50.718;4.630;2022-08-21T03:15:46;13.40;99.90
23873;DHT22;42884;50.718;4.630;2022-08-21T03:18:12;13.40;99.90
23873;DHT22;42884;50.718;4.630;2022-08-21T03:20:38;13.40;99.90
23873;DHT22;42884;50.718;4.630;2022-08-21T03:23:04;13.30;99.90
23873;DHT22;42884;50.718;4.630;2022-08-21T03:25:30;13.30;99.90
23873;DHT22;42884;50.718;4.630;2022-08-21T03:27:57;13.30;99.90
23873;DHT22;42884;50.718;4.630;2022-08-21T03:30:23;13.30;99.90
23873;DHT22;42884;50.718;4.630;2022-08-21T03:32:49;13.30;99.90
23873;DHT22;42884;50.718;4.630;2022-08-21T03:35:16;13.30;99.90
23873;DHT22;42884;50.718;4.630;2022-08-21T03:37:42;13.20;99.90
23873;DHT22;42884;50.718;4.630;2022-08-21T03:40:08;13.20;99.90
23873;DHT22;42884;50.718;4.630;2022-08-21T03:42:33;13.20;99.90
23873;DHT22;42884;50.718;4.630;2022-08-21T03:44:59;13.20;99.90
23873;DHT22;42884;50.718;4.630;2022-08-21T03:47:25;13.20;99.90
23873;DHT22;42884;50.718;4.630;2022-08-21T03:49:50;13.10;99.90
23873;DHT22;42884;50.718;4.630;2022-08-21T03:52:16;13.10;99.90
23873;DHT22;42884;50.718;4.630;2022-08-21T03:54:42;13.00;99.90
23873;DHT22;42884;50.718;4.630;2022-08-21T03:57:08;13.10;99.90
23873;DHT22;42884;50.718;4.630;2022-08-21T03:59:34;13.00;99.90
23873;DHT22;42884;50.718;4.630;2022-08-21T04:02:01;13.00;99.90
23873;DHT22;42884;50.718;4.630;2022-08-21T04:04:27;13.00;99.90
23873;DHT22;42884;50.718;4.630;2022-08-21T04:06:53;13.00;99.90
23873;DHT22;42884;50.718;4.630;2022-08-21T04:09:19;12.90;99.90
23873;DHT22;42884;50.718;4.630;2022-08-21T04:11:45;12.90;99.90
23873;DHT22;42884;50.718;4.630;2022-08-21T04:14:12;12.90;99.90
23873;DHT22;42884;50.718;4.630;2022-08-21T04:16:38;12.80;99.90
23873;DHT22;42884;50.718;4.630;2022-08-21T04:19:03;12.80;99.90
23873;DHT22;42884;50.718;4.630;2022-08-21T04:21:29;12.80;99.90
23873;DHT22;42884;50.718;4.630;2022-08-21T04:23:55;12.80;99.90
23873;DHT22;42884;50.718;4.630;2022-08-21T04:26:21;12.80;99.90
23873;DHT22;42884;50.718;4.630;2022-08-21T04:28:46;12.70;99.90
23873;DHT22;42884;50.718;4.630;2022-08-21T04:31:12;12.70;99.90
23873;DHT22;42884;50.718;4.630;2022-08-21T04:33:38;12.70;99.90
23873;DHT22;42884;50.718;4.630;2022-08-21T04:36:04;12.70;99.90
23873;DHT22;42884;50.718;4.630;2022-08-21T04:38:30;12.70;99.90
23873;DHT22;42884;50.718;4.630;2022-08-21T04:40:56;12.70;99.90
23873;DHT22;42884;50.718;4.630;2022-08-21T04:43:22;12.80;99.90
23873;DHT22;42884;50.718;4.630;2022-08-21T04:45:49;12.70;99.90
23873;DHT22;42884;50.718;4.630;2022-08-21T04:48:15;12.70;99.90
23873;DHT22;42884;50.718;4.630;2022-08-21T04:53:27;12.70;99.90
23873;DHT22;42884;50.718;4.630;2022-08-21T04:55:55;12.70;99.90
23873;DHT22;42884;50.718;4.630;2022-08-21T04:58:22;12.70;99.90
23873;DHT22;42884;50.718;4.630;2022-08-21T05:00:51;12.70;99.90
23873;DHT22;42884;50.718;4.630;2022-08-21T05:03:17;12.70;99.90
23873;DHT22;42884;50.718;4.630;2022-08-21T05:05:42;12.70;99.90
23873;DHT22;42884;50.718;4.630;2022-08-21T05:08:09;12.70;99.90
23873;DHT22;42884;50.718;4.630;2022-08-21T05:10:37;12.60;99.90
23873;DHT22;42884;50.718;4.630;2022-08-21T05:13:02;12.60;99.90
23873;DHT22;42884;50.718;4.630;2022-08-21T05:15:28;12.70;99.90
23873;DHT22;42884;50.718;4.630;2022-08-21T05:17:55;12.70;99.90
23873;DHT22;42884;50.718;4.630;2022-08-21T05:20:21;12.70;99.90
23873;DHT22;42884;50.718;4.630;2022-08-21T05:22:46;12.70;99.90
23873;DHT22;42884;50.718;4.630;2022-08-21T05:25:12;12.60;99.90
23873;DHT22;42884;50.718;4.630;2022-08-21T05:27:38;12.80;99.90
23873;DHT22;42884;50.718;4.630;2022-08-21T05:30:04;12.80;99.90
23873;DHT22;42884;50.718;4.630;2022-08-21T05:32:30;12.90;99.90
23873;DHT22;42884;50.718;4.630;2022-08-21T05:34:55;13.00;99.90
23873;DHT22;42884;50.718;4.630;2022-08-21T05:37:21;13.00;99.90
23873;DHT22;42884;50.718;4.630;2022-08-21T05:39:46;13.10;99.90
23873;DHT22;42884;50.718;4.630;2022-08-21T05:42:12;13.10;99.90
23873;DHT22;42884;50.718;4.630;2022-08-21T05:44:37;13.20;99.90
23873;DHT22;42884;50.718;4.630;2022-08-21T05:47:04;13.30;99.90
23873;DHT22;42884;50.718;4.630;2022-08-21T05:49:30;13.30;99.90
23873;DHT22;42884;50.718;4.630;2022-08-21T05:51:55;13.40;99.90
23873;DHT22;42884;50.718;4.630;2022-08-21T05:54:21;13.50;99.90
23873;DHT22;42884;50.718;4.630;2022-08-21T05:56:46;13.70;99.90
23873;DHT22;42884;50.718;4.630;2022-08-21T05:59:12;13.80;99.90
23873;DHT22;42884;50.718;4.630;2022-08-21T06:01:38;13.90;99.90
23873;DHT22;42884;50.718;4.630;2022-08-21T06:04:04;14.00;99.90
23873;DHT22;42884;50.718;4.630;2022-08-21T06:06:30;14.10;99.90
23873;DHT22;42884;50.718;4.630;2022-08-21T06:08:56;14.20;99.90
23873;DHT22;42884;50.718;4.630;2022-08-21T06:11:21;14.30;99.90
23873;DHT22;42884;50.718;4.630;2022-08-21T06:13:47;14.50;99.90
23873;DHT22;42884;50.718;4.630;2022-08-21T06:16:13;14.60;99.90
23873;DHT22;42884;50.718;4.630;2022-08-21T06:18:39;14.80;99.90
23873;DHT22;42884;50.718;4.630;2022-08-21T06:21:05;14.90;99.90
23873;DHT22;42884;50.718;4.630;2022-08-21T06:23:31;15.00;99.90
23873;DHT22;42884;50.718;4.630;2022-08-21T06:25:57;15.20;99.90
23873;DHT22;42884;50.718;4.630;2022-08-21T06:28:22;15.30;99.90
23873;DHT22;42884;50.718;4.630;2022-08-21T06:30:48;15.40;99.90
23873;DHT22;42884;50.718;4.630;2022-08-21T06:33:13;15.60;99.90
23873;DHT22;42884;50.718;4.630;2022-08-21T06:35:39;15.70;99.90
23873;DHT22;42884;50.718;4.630;2022-08-21T06:38:05;15.90;99.90
23873;DHT22;42884;50.718;4.630;2022-08-21T06:40:31;16.00;99.90
23873;DHT22;42884;50.718;4.630;2022-08-21T06:42:57;16.20;99.90
23873;DHT22;42884;50.718;4.630;2022-08-21T06:45:23;16.30;99.90
23873;DHT22;42884;50.718;4.630;2022-08-21T06:47:49;16.40;99.90
23873;DHT22;42884;50.718;4.630;2022-08-21T06:50:14;16.50;99.90
23873;DHT22;42884;50.718;4.630;2022-08-21T06:52:40;16.60;99.90
23873;DHT22;42884;50.718;4.630;2022-08-21T06:55:08;16.70;99.90
23873;DHT22;42884;50.718;4.630;2022-08-21T06:57:35;16.80;99.90
23873;DHT22;42884;50.718;4.630;2022-08-21T07:00:01;16.90;99.90
23873;DHT22;42884;50.718;4.630;2022-08-21T07:02:27;17.00;99.90
23873;DHT22;42884;50.718;4.630;2022-08-21T07:04:52;17.20;99.90
23873;DHT22;42884;50.718;4.630;2022-08-21T07:07:18;17.40;99.90
23873;DHT22;42884;50.718;4.630;2022-08-21T07:09:43;17.50;99.90
23873;DHT22;42884;50.718;4.630;2022-08-21T07:12:09;17.70;99.90
23873;DHT22;42884;50.718;4.630;2022-08-21T07:14:35;17.80;99.90
23873;DHT22;42884;50.718;4.630;2022-08-21T07:17:00;17.90;99.90
23873;DHT22;42884;50.718;4.630;2022-08-21T07:19:26;18.00;99.90
23873;DHT22;42884;50.718;4.630;2022-08-21T07:21:53;18.10;99.90
23873;DHT22;42884;50.718;4.630;2022-08-21T07:24:22;18.30;99.90
23873;DHT22;42884;50.718;4.630;2022-08-21T07:26:47;18.40;99.90
23873;DHT22;42884;50.718;4.630;2022-08-21T07:29:13;18.60;99.90
23873;DHT22;42884;50.718;4.630;2022-08-21T07:31:38;18.70;99.90
23873;DHT22;42884;50.718;4.630;2022-08-21T07:34:04;18.70;99.90
23873;DHT22;42884;50.718;4.630;2022-08-21T07:36:29;18.80;99.90
23873;DHT22;42884;50.718;4.630;2022-08-21T07:38:55;19.00;99.90
23873;DHT22;42884;50.718;4.630;2022-08-21T07:41:22;19.20;99.90
23873;DHT22;42884;50.718;4.630;2022-08-21T07:43:48;19.40;99.90
23873;DHT22;42884;50.718;4.630;2022-08-21T07:46:13;19.40;99.90
23873;DHT22;42884;50.718;4.630;2022-08-21T07:48:42;19.60;99.90
23873;DHT22;42884;50.718;4.630;2022-08-21T07:51:11;19.80;99.90
23873;DHT22;42884;50.718;4.630;2022-08-21T07:53:38;19.90;99.90
23873;DHT22;42884;50.718;4.630;2022-08-21T07:56:04;20.00;99.90
23873;DHT22;42884;50.718;4.630;2022-08-21T07:58:30;20.10;99.90
23873;DHT22;42884;50.718;4.630;2022-08-21T08:00:55;20.20;99.90
23873;DHT22;42884;50.718;4.630;2022-08-21T08:03:21;20.20;99.90
23873;DHT22;42884;50.718;4.630;2022-08-21T08:05:46;20.30;99.90
23873;DHT22;42884;50.718;4.630;2022-08-21T08:08:12;20.40;99.90
23873;DHT22;42884;50.718;4.630;2022-08-21T08:10:38;20.60;99.90
23873;DHT22;42884;50.718;4.630;2022-08-21T08:13:04;20.80;99.90
23873;DHT22;42884;50.718;4.630;2022-08-21T08:15:30;20.90;99.90
23873;DHT22;42884;50.718;4.630;2022-08-21T08:17:56;21.20;99.90
23873;DHT22;42884;50.718;4.630;2022-08-21T08:20:22;21.40;99.90
23873;DHT22;42884;50.718;4.630;2022-08-21T08:22:49;21.60;99.90
23873;DHT22;42884;50.718;4.630;2022-08-21T08:25:14;21.60;99.90
23873;DHT22;42884;50.718;4.630;2022-08-21T08:27:40;21.70;99.90
23873;DHT22;42884;50.718;4.630;2022-08-21T08:30:07;22.00;99.90
23873;DHT22;42884;50.718;4.630;2022-08-21T08:32:33;22.20;99.90
23873;DHT22;42884;50.718;4.630;2022-08-21T08:34:58;22.30;99.90
23873;DHT22;42884;50.718;4.630;2022-08-21T08:37:24;22.50;99.90
23873;DHT22;42884;50.718;4.630;2022-08-21T08:39:50;22.50;99.90
23873;DHT22;42884;50.718;4.630;2022-08-21T08:42:21;22.70;99.90
23873;DHT22;42884;50.718;4.630;2022-08-21T08:44:48;22.70;99.90
23873;DHT22;42884;50.718;4.630;2022-08-21T08:47:16;22.80;99.90
23873;DHT22;42884;50.718;4.630;2022-08-21T08:50:05;23.00;99.90
23873;DHT22;42884;50.718;4.630;2022-08-21T08:52:30;23.40;99.90
23873;DHT22;42884;50.718;4.630;2022-08-21T08:55:04;24.00;99.90
23873;DHT22;42884;50.718;4.630;2022-08-21T08:57:30;24.10;99.90
23873;DHT22;42884;50.718;4.630;2022-08-21T08:59:58;24.10;99.90
23873;DHT22;42884;50.718;4.630;2022-08-21T09:02:24;24.40;99.90
23873;DHT22;42884;50.718;4.630;2022-08-21T09:04:53;24.50;99.90
23873;DHT22;42884;50.718;4.630;2022-08-21T09:07:28;24.50;99.90
23873;DHT22;42884;50.718;4.630;2022-08-21T09:12:39;24.80;99.90
23873;DHT22;42884;50.718;4.630;2022-08-21T09:15:12;25.00;99.90
23873;DHT22;42884;50.718;4.630;2022-08-21T09:20:36;25.20;99.90
23873;DHT22;42884;50.718;4.630;2022-08-21T09:23:10;25.70;99.90
23873;DHT22;42884;50.718;4.630;2022-08-21T09:25:42;26.00;99.90
23873;DHT22;42884;50.718;4.630;2022-08-21T09:28:11;26.40;99.90
23873;DHT22;42884;50.718;4.630;2022-08-21T09:30:37;26.40;99.90
23873;DHT22;42884;50.718;4.630;2022-08-21T09:33:04;26.50;99.90
23873;DHT22;42884;50.718;4.630;2022-08-21T09:35:30;26.70;99.90
23873;DHT22;42884;50.718;4.630;2022-08-21T09:37:58;26.50;99.90
23873;DHT22;42884;50.718;4.630;2022-08-21T09:40:32;26.80;99.90
23873;DHT22;42884;50.718;4.630;2022-08-21T09:43:03;26.80;99.90
23873;DHT22;42884;50.718;4.630;2022-08-21T09:45:28;26.90;99.90
23873;DHT22;42884;50.718;4.630;2022-08-21T09:47:54;27.30;99.90
23873;DHT22;42884;50.718;4.630;2022-08-21T09:50:24;27.40;99.90
23873;DHT22;42884;50.718;4.630;2022-08-21T09:52:51;28.00;99.90
23873;DHT22;42884;50.718;4.630;2022-08-21T09:58:15;28.40;98.80
23873;DHT22;42884;50.718;4.630;2022-08-21T10:00:41;28.10;98.30
23873;DHT22;42884;50.718;4.630;2022-08-21T10:03:11;28.00;99.50
23873;DHT22;42884;50.718;4.630;2022-08-21T10:05:37;27.90;99.30
23873;DHT22;42884;50.718;4.630;2022-08-21T10:08:02;27.60;98.80
23873;DHT22;42884;50.718;4.630;2022-08-21T10:10:30;27.60;98.70
23873;DHT22;42884;50.718;4.630;2022-08-21T10:18:15;28.10;97.80
23873;DHT22;42884;50.718;4.630;2022-08-21T10:20:45;28.50;99.30
23873;DHT22;42884;50.718;4.630;2022-08-21T10:25:48;28.40;97.80
23873;DHT22;42884;50.718;4.630;2022-08-21T10:31:06;28.80;97.40
23873;DHT22;42884;50.718;4.630;2022-08-21T10:33:37;28.80;96.60
23873;DHT22;42884;50.718;4.630;2022-08-21T10:36:24;28.40;95.90
23873;DHT22;42884;50.718;4.630;2022-08-21T10:52:02;29.30;97.30
23873;DHT22;42884;50.718;4.630;2022-08-21T10:56:51;29.60;94.50
23873;DHT22;42884;50.718;4.630;2022-08-21T11:01:49;30.00;94.70
23873;DHT22;42884;50.718;4.630;2022-08-21T11:04:19;30.60;94.50
23873;DHT22;42884;50.718;4.630;2022-08-21T11:06:48;30.50;93.50
23873;DHT22;42884;50.718;4.630;2022-08-21T11:09:16;30.60;93.80
23873;DHT22;42884;50.718;4.630;2022-08-21T11:16:44;31.00;92.30
23873;DHT22;42884;50.718;4.630;2022-08-21T11:19:19;31.50;92.70
23873;DHT22;42884;50.718;4.630;2022-08-21T11:29:29;32.00;91.00
23873;DHT22;42884;50.718;4.630;2022-08-21T11:31:59;31.70;90.00
23873;DHT22;42884;50.718;4.630;2022-08-21T11:34:38;31.70;90.90
23873;DHT22;42884;50.718;4.630;2022-08-21T11:40:04;31.50;90.80
23873;DHT22;42884;50.718;4.630;2022-08-21T11:48:09;29.30;90.70
23873;DHT22;42884;50.718;4.630;2022-08-21T11:50:37;29.00;92.30
23873;DHT22;42884;50.718;4.630;2022-08-21T11:53:05;28.90;92.00
23873;DHT22;42884;50.718;4.630;2022-08-21T11:55:38;29.00;91.50
23873;DHT22;42884;50.718;4.630;2022-08-21T12:03:08;28.90;91.80
23873;DHT22;42884;50.718;4.630;2022-08-21T12:05:35;28.80;92.40
23873;DHT22;42884;50.718;4.630;2022-08-21T12:10:31;29.00;92.90
23873;DHT22;42884;50.718;4.630;2022-08-21T12:13:05;29.40;93.60
23873;DHT22;42884;50.718;4.630;2022-08-21T12:15:30;30.20;93.80
23873;DHT22;42884;50.718;4.630;2022-08-21T12:18:01;30.80;91.70
23873;DHT22;42884;50.718;4.630;2022-08-21T12:20:41;31.30;91.50
23873;DHT22;42884;50.718;4.630;2022-08-21T12:25:40;31.00;90.10
23873;DHT22;42884;50.718;4.630;2022-08-21T12:28:07;30.50;87.40
23873;DHT22;42884;50.718;4.630;2022-08-21T12:30:35;31.00;87.70
23873;DHT22;42884;50.718;4.630;2022-08-21T12:33:23;31.40;86.30
23873;DHT22;42884;50.718;4.630;2022-08-21T12:35:47;31.60;84.70
23873;DHT22;42884;50.718;4.630;2022-08-21T12:38:34;31.90;88.00
23873;DHT22;42884;50.718;4.630;2022-08-21T12:41:27;32.60;87.00
23873;DHT22;42884;50.718;4.630;2022-08-21T12:43:57;32.70;87.20
23873;DHT22;42884;50.718;4.630;2022-08-21T12:46:30;32.90;83.20
23873;DHT22;42884;50.718;4.630;2022-08-21T12:48:58;32.70;82.40
23873;DHT22;42884;50.718;4.630;2022-08-21T12:51:32;31.90;82.60
23873;DHT22;42884;50.718;4.630;2022-08-21T12:53:59;32.10;85.50
23873;DHT22;42884;50.718;4.630;2022-08-21T12:56:33;32.30;80.80
23873;DHT22;42884;50.718;4.630;2022-08-21T12:59:06;32.80;84.30
23873;DHT22;42884;50.718;4.630;2022-08-21T13:01:34;33.00;82.70
23873;DHT22;42884;50.718;4.630;2022-08-21T13:04:04;33.20;82.50
23873;DHT22;42884;50.718;4.630;2022-08-21T13:06:37;33.60;83.70
23873;DHT22;42884;50.718;4.630;2022-08-21T13:09:04;33.50;80.00
23873;DHT22;42884;50.718;4.630;2022-08-21T13:11:31;33.60;81.30
23873;DHT22;42884;50.718;4.630;2022-08-21T13:13:57;33.60;81.60
23873;DHT22;42884;50.718;4.630;2022-08-21T13:16:25;33.20;79.70
23873;DHT22;42884;50.718;4.630;2022-08-21T13:18:56;32.50;80.10
23873;DHT22;42884;50.718;4.630;2022-08-21T13:21:27;32.20;81.60
23873;DHT22;42884;50.718;4.630;2022-08-21T13:23:53;31.90;80.90
23873;DHT22;42884;50.718;4.630;2022-08-21T13:26:20;31.20;82.20
23873;DHT22;42884;50.718;4.630;2022-08-21T13:28:46;30.70;82.10
23873;DHT22;42884;50.718;4.630;2022-08-21T13:31:15;30.30;83.40
23873;DHT22;42884;50.718;4.630;2022-08-21T13:33:41;29.70;84.00
23873;DHT22;42884;50.718;4.630;2022-08-21T13:36:16;28.70;86.20
23873;DHT22;42884;50.718;4.630;2022-08-21T13:38:44;28.50;87.50
23873;DHT22;42884;50.718;4.630;2022-08-21T13:41:21;28.50;87.40
23873;DHT22;42884;50.718;4.630;2022-08-21T13:43:49;28.30;88.80
23873;DHT22;42884;50.718;4.630;2022-08-21T13:46:15;28.20;88.30
23873;DHT22;42884;50.718;4.630;2022-08-21T13:48:42;28.50;89.20
23873;DHT22;42884;50.718;4.630;2022-08-21T13:51:08;28.30;88.30
23873;DHT22;42884;50.718;4.630;2022-08-21T13:56:05;27.60;88.10
23873;DHT22;42884;50.718;4.630;2022-08-21T13:58:42;27.70;90.80
23873;DHT22;42884;50.718;4.630;2022-08-21T14:01:17;27.80;90.20
23873;DHT22;42884;50.718;4.630;2022-08-21T14:03:45;27.90;89.90
23873;DHT22;42884;50.718;4.630;2022-08-21T14:06:14;27.90;90.10
23873;DHT22;42884;50.718;4.630;2022-08-21T14:08:41;27.90;90.20
23873;DHT22;42884;50.718;4.630;2022-08-21T14:11:12;27.70;89.70
23873;DHT22;42884;50.718;4.630;2022-08-21T14:13:46;27.70;91.30
23873;DHT22;42884;50.718;4.630;2022-08-21T14:21:24;27.70;90.20
23873;DHT22;42884;50.718;4.630;2022-08-21T14:24:03;28.00;90.80
23873;DHT22;42884;50.718;4.630;2022-08-21T14:26:29;27.60;90.40
23873;DHT22;42884;50.718;4.630;2022-08-21T14:28:57;27.20;90.40
23873;DHT22;42884;50.718;4.630;2022-08-21T14:31:27;27.20;91.20
23873;DHT22;42884;50.718;4.630;2022-08-21T14:33:54;27.00;91.30
23873;DHT22;42884;50.718;4.630;2022-08-21T14:36:20;27.00;91.20
23873;DHT22;42884;50.718;4.630;2022-08-21T14:38:45;26.90;91.90
23873;DHT22;42884;50.718;4.630;2022-08-21T14:41:14;26.90;91.60
23873;DHT22;42884;50.718;4.630;2022-08-21T14:43:41;26.80;91.90
23873;DHT22;42884;50.718;4.630;2022-08-21T14:46:06;27.20;92.60
23873;DHT22;42884;50.718;4.630;2022-08-21T14:48:32;27.00;91.10
23873;DHT22;42884;50.718;4.630;2022-08-21T14:50:58;27.10;91.90
23873;DHT22;42884;50.718;4.630;2022-08-21T14:53:24;27.20;92.10
23873;DHT22;42884;50.718;4.630;2022-08-21T14:55:49;27.00;91.50
23873;DHT22;42884;50.718;4.630;2022-08-21T14:58:30;27.00;91.80
23873;DHT22;42884;50.718;4.630;2022-08-21T15:00:55;27.00;92.80
23873;DHT22;42884;50.718;4.630;2022-08-21T15:03:23;27.00;92.30
23873;DHT22;42884;50.718;4.630;2022-08-21T15:05:48;27.00;92.80
23873;DHT22;42884;50.718;4.630;2022-08-21T15:08:15;27.10;92.30
23873;DHT22;42884;50.718;4.630;2022-08-21T15:10:41;26.90;91.50
23873;DHT22;42884;50.718;4.630;2022-08-21T15:13:06;27.20;92.80
23873;DHT22;42884;50.718;4.630;2022-08-21T15:15:34;27.10;92.40
23873;DHT22;42884;50.718;4.630;2022-08-21T15:18:00;27.20;92.80
23873;DHT22;42884;50.718;4.630;2022-08-21T15:20:26;27.20;92.60
23873;DHT22;42884;50.718;4.630;2022-08-21T15:22:52;27.20;93.60
23873;DHT22;42884;50.718;4.630;2022-08-21T15:25:17;27.30;93.20
23873;DHT22;42884;50.718;4.630;2022-08-21T15:27:43;27.30;92.60
23873;DHT22;42884;50.718;4.630;2022-08-21T15:30:09;27.50;92.60
23873;DHT22;42884;50.718;4.630;2022-08-21T15:32:34;27.50;92.60
23873;DHT22;42884;50.718;4.630;2022-08-21T15:35:02;27.30;91.90
23873;DHT22;42884;50.718;4.630;2022-08-21T15:37:28;27.20;92.50
23873;DHT22;42884;50.718;4.630;2022-08-21T15:39:54;27.10;92.80
23873;DHT22;42884;50.718;4.630;2022-08-21T15:42:20;27.10;92.20
23873;DHT22;42884;50.718;4.630;2022-08-21T15:44:46;27.00;92.50
23873;DHT22;42884;50.718;4.630;2022-08-21T15:47:13;26.90;92.00
23873;DHT22;42884;50.718;4.630;2022-08-21T15:49:40;26.90;91.90
23873;DHT22;42884;50.718;4.630;2022-08-21T15:52:10;26.80;92.70
23873;DHT22;42884;50.718;4.630;2022-08-21T15:54:36;26.70;91.40
23873;DHT22;42884;50.718;4.630;2022-08-21T15:57:01;26.70;92.00
23873;DHT22;42884;50.718;4.630;2022-08-21T15:59:27;26.70;91.60
23873;DHT22;42884;50.718;4.630;2022-08-21T16:01:57;26.70;92.70
23873;DHT22;42884;50.718;4.630;2022-08-21T16:04:24;26.80;92.60
23873;DHT22;42884;50.718;4.630;2022-08-21T16:06:54;26.70;92.00
23873;DHT22;42884;50.718;4.630;2022-08-21T16:09:20;26.60;93.30
23873;DHT22;42884;50.718;4.630;2022-08-21T16:11:46;26.50;92.90
23873;DHT22;42884;50.718;4.630;2022-08-21T16:14:12;26.60;93.70
23873;DHT22;42884;50.718;4.630;2022-08-21T16:16:39;26.60;92.70
23873;DHT22;42884;50.718;4.630;2022-08-21T16:19:05;26.70;92.50
23873;DHT22;42884;50.718;4.630;2022-08-21T16:21:32;26.40;93.20
23873;DHT22;42884;50.718;4.630;2022-08-21T16:23:58;26.50;93.80
23873;DHT22;42884;50.718;4.630;2022-08-21T16:26:23;26.50;94.20
23873;DHT22;42884;50.718;4.630;2022-08-21T16:28:49;26.20;93.20
23873;DHT22;42884;50.718;4.630;2022-08-21T16:31:17;26.30;93.80
23873;DHT22;42884;50.718;4.630;2022-08-21T16:33:43;26.30;93.90
23873;DHT22;42884;50.718;4.630;2022-08-21T16:36:11;26.40;94.60
23873;DHT22;42884;50.718;4.630;2022-08-21T16:38:45;26.40;95.00
23873;DHT22;42884;50.718;4.630;2022-08-21T16:41:13;26.40;95.30
23873;DHT22;42884;50.718;4.630;2022-08-21T16:43:40;26.30;95.00
23873;DHT22;42884;50.718;4.630;2022-08-21T16:46:07;26.20;95.80
23873;DHT22;42884;50.718;4.630;2022-08-21T16:48:33;26.20;94.90